Latest Weather Observations for Condobolin Airport

IDN60801

Issued at 9:35 am EDT Thursday 27 November 2014 (issued every 30 minutes, with the page automatically refreshed every 10 minutes)

About weather observations | Map of weather stations | Latest weather observations for NSW | Other Formats
Station Details ID: 050137 Name: CONDOBOLIN AIRPORT AWS Lat: -33.07 Lon: 147.21 Height: 192.6 m
Data from the previous 72 hours. | See also: Recent months at Condobolin Airport
Date/Time
EDT
Temp
°C
App
Temp
°C
Dew
Point
Rel
Hum
%
Delta-T
°C
Wind Press
QNH
hPa
Press
MSL
hPa
Rain
since 9 am
mm
Dir
 
Spd
km/h
Gust
km/h
Spd
kts
Gust
kts
27/09:30am 23.8 21.3 9.8 41 7.7 SSE 13 22 7 12 1019.9 1019.2 0.0
27/09:00am 21.6 19.2 8.8 44 6.8 SSE 11 17 6 9 1020.0 1019.3 0.0
27/08:30am 19.9 17.5 8.6 48 6.0 SSE 11 15 6 8 1019.7 1019.0 0.0
27/08:00am 19.3 17.8 8.6 50 5.6 SSE 6 11 3 6 1019.6 1018.9 0.0
27/07:30am 17.2 15.4 7.8 54 4.8 S 7 11 4 6 1019.2 1018.6 0.0
27/07:00am 15.8 15.3 7.8 59 4.0 CALM 0 0 0 0 1018.9 1018.3 0.0
27/06:30am 13.5 12.7 6.6 63 3.4 CALM 0 0 0 0 1018.8 1018.2 0.0
27/06:00am 13.0 11.0 6.1 63 3.3 W 6 7 3 4 1018.6 1018.0 0.0
27/05:30am 13.8 12.8 5.4 57 4.0 CALM 0 0 0 0 1018.3 1017.6 0.0
27/05:00am 14.0 12.9 5.1 55 4.2 CALM 0 0 0 0 1018.1 1017.4 0.0
27/04:30am 13.9 12.4 5.0 55 4.2 SW 2 7 1 4 1017.8 1017.1 0.0
27/04:00am 13.1 10.5 4.0 54 4.2 W 7 7 4 4 1017.5 1016.8 0.0
27/03:30am 14.2 11.5 3.7 49 4.8 SW 7 11 4 6 1017.4 1016.7 0.0
27/03:00am 14.8 11.4 4.2 49 4.9 SSW 11 13 6 7 1017.4 1016.7 0.0
27/02:30am 14.9 13.1 3.7 47 5.2 SW 2 7 1 4 1017.6 1016.9 0.0
27/02:00am 15.3 13.4 3.1 44 5.6 S 2 6 1 3 1017.7 1017.0 0.0
27/01:30am 16.0 13.2 3.1 42 5.9 SW 7 9 4 5 1017.9 1017.2 0.0
27/01:00am 16.8 13.9 2.8 39 6.4 SW 7 11 4 6 1018.1 1017.4 0.0
27/12:30am 17.4 14.5 2.6 37 6.8 SW 7 9 4 5 1018.3 1017.6 0.0
27/12:00am 18.4 14.3 2.3 34 7.4 SW 13 15 7 8 1018.4 1017.7 0.0
 
Date/Time
EDT
Temp
°C
App
Temp
°C
Dew
Point
Rel
Hum
%
Delta-T
°C
Wind Press
QNH
hPa
Press
MSL
hPa
Rain
since 9 am
mm
Dir
 
Spd
km/h
Gust
km/h
Spd
kts
Gust
kts
26/11:30pm 19.1 15.3 1.6 31 8.0 SSW 11 15 6 8 1018.4 1017.7 0.0
26/11:00pm 20.7 16.4 1.1 27 9.0 SSW 13 17 7 9 1018.3 1017.6 0.0
26/10:30pm 21.1 17.2 1.4 27 9.1 SSW 11 17 6 9 1018.3 1017.6 0.0
26/10:00pm 21.9 17.9 0.4 24 9.8 S 11 15 6 8 1018.0 1017.3 0.0
26/09:30pm 22.5 17.7 0.4 23 10.1 SSW 15 19 8 10 1017.7 1017.0 0.0
26/09:00pm 22.9 18.4 -0.6 21 10.6 SSW 13 17 7 9 1017.4 1016.7 0.0
26/08:30pm 24.7 19.3 -1.2 18 11.7 SSW 17 20 9 11 1017.2 1016.5 0.0
26/08:00pm 25.2 19.9 -0.8 18 11.9 SSW 17 22 9 12 1016.8 1016.1 0.0
26/07:30pm 25.9 20.1 -1.8 16 12.5 SSW 19 26 10 14 1016.6 1015.9 0.0
26/07:00pm 27.0 21.0 -1.8 15 13.1 SSW 20 28 11 15 1016.3 1015.6 0.0
26/06:30pm 28.0 21.6 -2.0 14 13.7 SW 22 33 12 18 1016.0 1015.3 0.0
26/06:00pm 29.2 22.8 -2.0 13 14.4 SSW 22 32 12 17 1015.7 1015.0 0.0
26/05:30pm 28.8 22.7 -2.3 13 14.3 SSW 20 30 11 16 1015.7 1015.0 0.0
26/05:00pm 29.5 24.0 -1.8 13 14.5 S 17 28 9 15 1015.6 1014.9 0.0
26/04:30pm 29.1 22.3 -2.1 13 14.4 SW 24 33 13 18 1016.0 1015.3 0.0
26/04:00pm 28.9 22.8 -2.3 13 14.3 WSW 20 32 11 17 1016.1 1015.4 0.0
26/03:30pm 29.2 21.2 -2.0 13 14.4 SW 30 37 16 20 1016.4 1015.7 0.0
26/03:00pm 29.0 22.5 -2.2 13 14.3 S 22 33 12 18 1016.8 1016.1 0.0
26/02:30pm 28.8 21.8 -3.4 12 14.5 S 24 30 13 16 1017.1 1016.4 0.0
26/02:00pm 27.9 22.0 -2.0 14 13.7 SSW 19 28 10 15 1017.4 1016.7 0.0
26/01:30pm 27.1 21.5 -2.7 14 13.4 SSW 17 30 9 16 1017.6 1016.9 0.0
26/01:00pm 26.9 20.9 -1.9 15 13.1 WSW 20 28 11 15 1018.0 1017.3 0.0
26/12:33pm 26.5 18.9 -2.2 15 13.0 SSW 28 39 15 21 1018.5 1017.9 0.0
26/12:30pm 25.9 22.6 -1.0 17 12.4 - 6 - 3 - 1018.4 1017.7 0.0
26/12:00pm 25.6 20.7 -0.5 18 12.0 SSW 15 24 8 13 1018.8 1018.2 0.0
26/11:30am 25.0 19.7 -0.9 18 11.8 S 17 30 9 16 1019.1 1018.5 0.0
26/11:00am 24.4 19.8 -0.7 19 11.4 S 13 20 7 11 1019.6 1018.9 0.0
26/10:30am 23.5 18.6 -0.7 20 11.0 SSE 15 26 8 14 1019.6 1018.9 0.0
26/10:00am 23.0 17.5 0.8 23 10.3 ESE 19 26 10 14 1019.6 1018.9 0.0
26/09:30am 22.4 16.8 1.4 25 9.8 SSE 20 28 11 15 1019.8 1019.1 0.0
26/09:00am 21.3 17.0 3.0 30 8.7 SE 15 19 8 10 1019.9 1019.2 0.0
26/08:30am 19.8 16.1 4.7 37 7.4 SE 13 20 7 11 1019.8 1019.1 0.0
26/08:00am 17.7 15.1 5.9 46 5.8 SSE 9 11 5 6 1019.6 1018.9 0.0
26/07:30am 15.0 12.7 5.5 53 4.6 SSE 7 9 4 5 1019.6 1018.9 0.0
26/07:00am 11.7 10.4 6.2 69 2.6 SSE 2 6 1 3 1019.6 1018.9 0.0
26/06:30am 9.4 8.0 7.2 86 1.0 SSE 4 7 2 4 1019.1 1018.5 0.0
26/06:00am 7.5 5.3 5.1 85 1.1 SSE 6 9 3 5 1019.0 1018.4 0.0
26/05:30am 8.7 7.7 5.4 80 1.5 CALM 0 0 0 0 1018.7 1018.1 0.0
26/05:00am 9.3 8.3 5.5 77 1.7 CALM 0 0 0 0 1018.3 1017.6 0.0
26/04:30am 10.1 8.6 6.6 79 1.7 WSW 4 7 2 4 1018.2 1017.5 0.0
26/04:00am 9.7 8.5 4.5 70 2.3 CALM 0 0 0 0 1018.1 1017.4 0.0
26/03:30am 9.5 8.3 4.5 71 2.2 CALM 0 0 0 0 1018.2 1017.5 0.0
26/03:00am 10.7 9.4 4.0 63 3.0 CALM 0 0 0 0 1018.3 1017.6 0.0
26/02:30am 11.9 10.8 5.1 63 3.2 CALM 0 0 0 0 1018.4 1017.7 0.0
26/02:00am 11.9 10.8 4.9 62 3.2 CALM 0 0 0 0 1018.7 1018.1 0.0
26/01:30am 13.0 11.6 5.4 60 3.6 WSW 2 7 1 4 1019.0 1018.4 0.0
26/01:00am 13.6 12.2 3.7 51 4.5 CALM 0 0 0 0 1019.3 1018.7 0.0
26/12:30am 14.2 12.3 3.1 47 5.0 SW 2 7 1 4 1019.3 1018.7 0.0
26/12:00am 14.3 11.5 3.2 47 5.0 SW 7 9 4 5 1019.4 1018.8 0.0
 
Date/Time
EDT
Temp
°C
App
Temp
°C
Dew
Point
Rel
Hum
%
Delta-T
°C
Wind Press
QNH
hPa
Press
MSL
hPa
Rain
since 9 am
mm
Dir
 
Spd
km/h
Gust
km/h
Spd
kts
Gust
kts
25/11:30pm 16.0 13.0 2.1 39 6.3 SSW 7 9 4 5 1019.7 1019.0 0.0
25/11:00pm 17.4 14.2 0.6 32 7.4 S 7 9 4 5 1019.8 1019.1 0.0
25/10:30pm 17.6 14.0 0.3 31 7.6 SSW 9 13 5 7 1019.4 1018.8 0.0
25/10:00pm 18.7 14.8 -1.2 26 8.5 S 9 13 5 7 1019.1 1018.5 0.0
25/09:30pm 19.8 14.8 -1.3 24 9.2 SSW 15 19 8 10 1018.7 1018.1 0.0
25/09:00pm 20.7 15.6 -1.8 22 9.7 SSW 15 19 8 10 1018.4 1017.7 0.0
25/08:30pm 21.8 16.2 -2.8 19 10.5 SSW 17 20 9 11 1018.1 1017.4 0.0
25/08:00pm 22.9 17.2 -3.4 17 11.2 SSW 17 20 9 11 1017.8 1017.1 0.0
25/07:30pm 24.6 18.8 -4.6 14 12.4 S 17 24 9 13 1017.6 1016.9 0.0
25/07:00pm 25.5 19.2 -6.0 12 13.1 SSW 19 20 10 11 1017.3 1016.6 0.0
25/06:30pm 26.3 20.7 -6.5 11 13.7 S 15 22 8 12 1016.9 1016.2 0.0
25/06:00pm 26.7 21.1 -6.2 11 13.8 SW 15 24 8 13 1016.6 1015.9 0.0
25/05:30pm 26.5 22.1 -6.3 11 13.7 S 9 28 5 15 1016.7 1016.0 0.0
25/05:00pm 26.7 21.1 -6.2 11 13.8 SSW 15 24 8 13 1016.9 1016.2 0.0
25/04:30pm 27.0 21.2 -4.8 12 13.7 SSW 17 24 9 13 1017.1 1016.4 0.0
25/04:00pm 26.3 21.3 -4.3 13 13.2 S 13 26 7 14 1017.3 1016.6 0.0
25/03:30pm 26.0 19.8 -3.5 14 12.9 S 20 26 11 14 1017.4 1016.7 0.0
25/03:00pm 26.1 20.7 -1.7 16 12.6 S 17 26 9 14 1017.7 1017.0 0.0
25/02:30pm 25.5 20.6 -3.0 15 12.6 SSW 13 24 7 13 1017.7 1017.0 0.0
25/02:00pm 25.0 18.2 -1.7 17 12.0 SSW 24 33 13 18 1018.0 1017.3 0.0
25/01:30pm 24.2 18.9 -0.9 19 11.4 WSW 17 24 9 13 1018.3 1017.6 0.0
25/01:00pm 23.3 17.7 -0.2 21 10.7 SSW 19 32 10 17 1018.5 1017.9 0.0
25/12:30pm 22.2 16.7 0.7 24 9.9 SSW 19 32 10 17 1019.0 1018.4 0.0
25/12:00pm 21.3 14.0 -0.1 24 9.6 SSW 28 37 15 20 1019.4 1018.8 0.0
25/11:30am 20.8 15.3 2.1 29 8.8 SW 20 28 11 15 1019.4 1018.8 0.0
25/11:00am 19.1 13.6 2.0 32 7.9 S 20 32 11 17 1019.4 1018.8 0.0
25/10:30am 18.9 13.4 3.9 37 7.2 S 22 33 12 18 1019.7 1019.0 0.0
25/10:00am 18.4 13.3 4.2 39 6.8 SSW 20 28 11 15 1019.4 1018.8 0.0
25/09:30am 16.9 11.3 5.2 46 5.7 S 24 32 13 17 1019.3 1018.7 0.0
25/09:00am 15.5 10.6 5.1 50 5.0 S 20 30 11 16 1019.3 1018.7 5.6
25/08:30am 15.0 9.7 5.2 52 4.7 S 22 35 12 19 1018.9 1018.3 5.6
25/08:00am 15.0 10.6 7.3 60 3.8 SSW 20 24 11 13 1018.5 1017.9 5.6
25/07:30am 15.0 10.0 8.0 63 3.5 SSW 24 32 13 17 1018.1 1017.4 5.4
25/07:00am 15.3 11.8 10.1 71 2.7 SSW 19 24 10 13 1017.3 1016.6 5.0
25/06:30am 15.2 11.6 9.8 70 2.8 SSW 19 24 10 13 1016.8 1016.1 4.2
25/06:00am 15.5 11.8 9.6 68 3.1 SW 19 26 10 14 1016.3 1015.6 3.4
25/05:30am 15.9 12.0 9.6 66 3.3 SW 20 24 11 13 1015.8 1015.1 2.8
25/05:00am 16.4 11.4 9.6 64 3.6 SW 26 35 14 19 1015.4 1014.7 2.2
25/04:30am 16.9 10.8 9.6 62 3.9 SSW 32 43 17 23 1014.8 1014.1 1.4
25/04:00am 17.9 14.3 15.2 84 1.6 SW 28 39 15 21 1014.3 1013.6 1.0
25/03:30am 18.7 15.2 15.4 81 2.0 SW 28 35 15 19 1013.3 1012.6 0.8
25/03:00am 19.2 16.4 16.4 84 1.7 SW 26 33 14 18 1012.9 1012.2 0.6
25/02:30am 19.2 16.9 16.6 85 1.6 SW 24 33 13 18 1012.6 1011.9 0.4
25/02:00am 19.6 19.2 19.3 98 0.2 SW 20 30 11 16 1012.0 1011.3 0.4
25/01:30am 19.4 19.1 19.1 98 0.2 WSW 19 22 10 12 1012.5 1011.8 0.4
25/01:00am 19.6 18.2 18.9 96 0.4 WSW 24 32 13 17 1013.2 1012.5 0.2
25/12:30am 20.3 17.7 18.6 90 1.1 W 30 41 16 22 1013.8 1013.1 0.2
25/12:00am 21.1 20.2 18.1 83 1.9 WSW 20 26 11 14 1013.2 1012.5 0.2
 
Date/Time
EDT
Temp
°C
App
Temp
°C
Dew
Point
Rel
Hum
%
Delta-T
°C
Wind Press
QNH
hPa
Press
MSL
hPa
Rain
since 9 am
mm
Dir
 
Spd
km/h
Gust
km/h
Spd
kts
Gust
kts
24/11:30pm 21.5 22.4 16.7 74 2.9 NW 7 11 4 6 1012.4 1011.7 0.2
24/11:00pm 22.3 22.8 15.6 66 4.0 SSE 7 11 4 6 1011.6 1010.9 0.2
24/10:30pm 22.6 22.8 15.7 65 4.2 SSW 9 13 5 7 1011.8 1011.1 0.2
24/10:00pm 22.6 20.8 15.4 64 4.3 SSW 19 22 10 12 1012.1 1011.4 0.2
24/09:35pm 22.9 17.5 15.0 61 4.7 SW 37 56 20 30 1012.2 1011.5 0.0
24/09:30pm 23.1 16.9 14.9 60 4.9 SW 41 56 22 30 1012.0 1011.3 0.0
24/09:24pm 23.5 16.8 14.5 57 5.4 SW 43 54 23 29 1012.0 1011.3 0.0
24/09:00pm 25.3 19.1 15.0 53 6.2 W 41 69 22 37 1011.3 1010.6 0.0
24/08:59pm 25.6 21.4 16.2 56 5.8 W 33 69 18 37 1011.1 1010.4 0.0
24/08:30pm 25.3 25.4 16.4 57 5.5 SW 11 13 6 7 1010.1 1009.4 0.0
24/08:00pm 27.1 27.7 15.8 50 7.0 W 7 11 4 6 1009.4 1008.6 0.0
24/07:30pm 28.1 27.3 14.0 42 8.5 WNW 11 13 6 7 1008.9 1008.1 0.0
24/07:00pm 27.7 29.7 16.0 49 7.3 CALM 0 0 0 0 1008.2 1007.5 0.0
24/06:30pm 27.8 30.0 16.4 50 7.1 CALM 0 0 0 0 1007.8 1007.1 0.0
24/06:00pm 27.5 28.6 16.5 51 6.9 E 6 11 3 6 1007.6 1006.9 0.0
24/05:30pm 27.4 28.6 17.3 54 6.4 E 7 9 4 5 1007.4 1006.7 0.0
24/05:00pm 27.4 28.1 17.0 53 6.6 E 9 13 5 7 1008.2 1007.5 0.0
24/04:30pm 27.5 28.0 16.5 51 6.9 SE 9 15 5 8 1009.4 1008.6 0.0
24/04:00pm 26.8 27.4 17.6 57 5.8 SSE 11 15 6 8 1009.8 1009.1 0.0
24/03:30pm 26.2 26.3 18.3 61 5.0 SE 15 19 8 10 1010.1 1009.4 0.0
24/03:00pm 25.8 24.5 17.2 59 5.4 S 20 28 11 15 1010.6 1009.9 0.0
24/02:30pm 26.9 25.8 17.4 56 6.0 S 19 26 10 14 1010.5 1009.8 0.0
24/02:00pm 28.9 26.5 13.9 39 9.1 SW 19 28 10 15 1010.8 1010.1 0.0
24/01:30pm 31.2 27.9 11.6 30 11.5 WSW 20 24 11 13 1010.1 1009.4 0.0
24/01:00pm 31.5 29.4 11.3 29 11.8 SW 13 19 7 10 1010.0 1009.3 0.0
24/12:30pm 32.1 30.0 11.3 28 12.2 WSW 13 24 7 13 1010.2 1009.5 0.0
24/12:00pm 33.2 31.6 12.8 29 12.3 NW 13 20 7 11 1010.2 1009.5 0.0
24/11:30am 32.2 29.2 11.9 29 12.0 NW 19 30 10 16 1010.9 1010.2 0.0
24/11:00am 31.8 28.8 12.1 30 11.7 N 19 28 10 15 1011.0 1010.3 0.0
24/10:30am 32.2 28.6 11.9 29 12.0 NNW 22 32 12 17 1011.0 1010.3 0.0
24/10:00am 32.0 30.1 11.7 28 12.0 ENE 13 20 7 11 1011.1 1010.4 0.0

Other Formats:

Comma delimited format used in spreadsheet applications
http://www.bom.gov.au/fwo/IDN60801/IDN60801.95708.axf

JavaScript Object Notation format (JSON) in row-major order
http://www.bom.gov.au/fwo/IDN60801/IDN60801.95708.json